Rochester, Ohio
Current Conditions -  °F | °C
As of 6:53 AM on Friday 19 Dec 2014 (Local Time) from KLPR Reporting Station
Overcast Overcast  
Wind Chill: 22°   Ceiling: 1100
Heat Index: 28°   Visibility: 7mi
Dew Point: 26°   Wind: 6mph
Humidity: 92%   Direction: 340°NNW
Pressure: 30.23"   Gusts: NA
Location:  41.1686°N, 82.2303°W
Report Text: KLPR 191153Z AUTO 34005KT 7SM OVC011 M02/M03 A3023 RMK AO2 SLP245 60001 70001 I6002 T10221033 11017 21022 53013 TSNO
Loading
Personal Weather Stations






























Interactive Weather Map New forecast layout! Learn more

10-Day Weather Forecast

Advertisements
Track Severe Weather on mobile